sensor_id;sensor_type;location;lat;lon;timestamp;P1;durP1;ratioP1;P2;durP2;ratioP2
16115;SDS011;8162;47.104;15.432;2023-02-28T00:00:48;6.60;;;5.40;;
16115;SDS011;8162;47.104;15.432;2023-02-28T00:03:49;6.23;;;4.27;;
16115;SDS011;8162;47.104;15.432;2023-02-28T00:06:50;5.93;;;4.70;;
16115;SDS011;8162;47.104;15.432;2023-02-28T00:09:51;4.77;;;4.07;;
16115;SDS011;8162;47.104;15.432;2023-02-28T00:12:52;8.63;;;5.63;;
16115;SDS011;8162;47.104;15.432;2023-02-28T00:16:04;8.80;;;6.20;;
16115;SDS011;8162;47.104;15.432;2023-02-28T00:19:05;9.40;;;6.60;;
16115;SDS011;8162;47.104;15.432;2023-02-28T00:22:07;10.77;;;6.90;;
16115;SDS011;8162;47.104;15.432;2023-02-28T00:25:08;7.83;;;5.40;;
16115;SDS011;8162;47.104;15.432;2023-02-28T00:28:10;6.83;;;5.00;;
16115;SDS011;8162;47.104;15.432;2023-02-28T00:31:11;7.70;;;4.80;;
16115;SDS011;8162;47.104;15.432;2023-02-28T00:34:12;5.87;;;4.60;;
16115;SDS011;8162;47.104;15.432;2023-02-28T00:37:13;6.17;;;4.23;;
16115;SDS011;8162;47.104;15.432;2023-02-28T00:40:14;6.97;;;5.33;;
16115;SDS011;8162;47.104;15.432;2023-02-28T00:43:15;6.80;;;5.30;;
16115;SDS011;8162;47.104;15.432;2023-02-28T00:46:16;8.80;;;5.37;;
16115;SDS011;8162;47.104;15.432;2023-02-28T00:49:17;7.80;;;5.83;;
16115;SDS011;8162;47.104;15.432;2023-02-28T00:52:18;7.80;;;6.07;;
16115;SDS011;8162;47.104;15.432;2023-02-28T00:55:19;7.57;;;6.10;;
16115;SDS011;8162;47.104;15.432;2023-02-28T00:58:20;6.60;;;5.23;;
16115;SDS011;8162;47.104;15.432;2023-02-28T01:01:22;6.83;;;5.73;;
16115;SDS011;8162;47.104;15.432;2023-02-28T01:04:23;6.87;;;4.83;;
16115;SDS011;8162;47.104;15.432;2023-02-28T01:07:24;5.07;;;4.57;;
16115;SDS011;8162;47.104;15.432;2023-02-28T01:10:25;6.13;;;4.90;;
16115;SDS011;8162;47.104;15.432;2023-02-28T01:13:31;5.53;;;4.40;;
16115;SDS011;8162;47.104;15.432;2023-02-28T01:16:32;5.20;;;4.70;;
16115;SDS011;8162;47.104;15.432;2023-02-28T01:19:33;5.37;;;4.77;;
16115;SDS011;8162;47.104;15.432;2023-02-28T01:22:35;6.70;;;4.93;;
16115;SDS011;8162;47.104;15.432;2023-02-28T01:25:36;6.63;;;4.70;;
16115;SDS011;8162;47.104;15.432;2023-02-28T01:28:37;5.23;;;4.50;;
16115;SDS011;8162;47.104;15.432;2023-02-28T01:31:38;5.70;;;4.40;;
16115;SDS011;8162;47.104;15.432;2023-02-28T01:34:39;6.13;;;4.47;;
16115;SDS011;8162;47.104;15.432;2023-02-28T01:37:40;5.53;;;4.40;;
16115;SDS011;8162;47.104;15.432;2023-02-28T01:40:41;5.03;;;4.53;;
16115;SDS011;8162;47.104;15.432;2023-02-28T01:46:42;5.43;;;4.93;;
16115;SDS011;8162;47.104;15.432;2023-02-28T01:49:43;4.97;;;4.47;;
16115;SDS011;8162;47.104;15.432;2023-02-28T01:52:44;5.90;;;4.23;;
16115;SDS011;8162;47.104;15.432;2023-02-28T01:55:48;4.53;;;4.13;;
16115;SDS011;8162;47.104;15.432;2023-02-28T01:58:52;6.67;;;4.63;;
16115;SDS011;8162;47.104;15.432;2023-02-28T02:01:54;5.20;;;4.70;;
16115;SDS011;8162;47.104;15.432;2023-02-28T02:05:00;6.10;;;4.70;;
16115;SDS011;8162;47.104;15.432;2023-02-28T02:08:06;6.17;;;4.50;;
16115;SDS011;8162;47.104;15.432;2023-02-28T02:11:11;4.60;;;4.20;;
16115;SDS011;8162;47.104;15.432;2023-02-28T02:14:21;7.87;;;5.00;;
16115;SDS011;8162;47.104;15.432;2023-02-28T02:17:48;4.80;;;4.03;;
16115;SDS011;8162;47.104;15.432;2023-02-28T02:20:59;5.20;;;4.70;;
16115;SDS011;8162;47.104;15.432;2023-02-28T02:24:33;6.43;;;4.20;;
16115;SDS011;8162;47.104;15.432;2023-02-28T02:31:48;5.50;;;4.50;;
16115;SDS011;8162;47.104;15.432;2023-02-28T02:34:55;4.57;;;4.13;;
16115;SDS011;8162;47.104;15.432;2023-02-28T02:44:23;7.70;;;5.03;;
16115;SDS011;8162;47.104;15.432;2023-02-28T02:47:31;5.63;;;4.30;;
16115;SDS011;8162;47.104;15.432;2023-02-28T02:50:37;4.63;;;4.20;;
16115;SDS011;8162;47.104;15.432;2023-02-28T02:54:13;5.93;;;4.10;;
16115;SDS011;8162;47.104;15.432;2023-02-28T02:57:20;5.97;;;3.87;;
16115;SDS011;8162;47.104;15.432;2023-02-28T03:00:39;7.70;;;5.17;;
16115;SDS011;8162;47.104;15.432;2023-02-28T03:03:43;5.10;;;4.43;;
16115;SDS011;8162;47.104;15.432;2023-02-28T03:06:45;7.63;;;5.57;;
16115;SDS011;8162;47.104;15.432;2023-02-28T03:09:52;9.67;;;5.47;;
16115;SDS011;8162;47.104;15.432;2023-02-28T03:13:03;8.47;;;5.73;;
16115;SDS011;8162;47.104;15.432;2023-02-28T03:26:14;8.17;;;6.67;;
16115;SDS011;8162;47.104;15.432;2023-02-28T03:29:25;8.50;;;6.13;;
16115;SDS011;8162;47.104;15.432;2023-02-28T03:32:42;7.13;;;5.70;;
16115;SDS011;8162;47.104;15.432;2023-02-28T03:35:56;6.47;;;5.37;;
16115;SDS011;8162;47.104;15.432;2023-02-28T03:39:07;6.73;;;4.63;;
16115;SDS011;8162;47.104;15.432;2023-02-28T03:42:13;5.53;;;4.90;;
16115;SDS011;8162;47.104;15.432;2023-02-28T03:45:23;7.27;;;5.07;;
16115;SDS011;8162;47.104;15.432;2023-02-28T03:48:31;7.20;;;4.80;;
16115;SDS011;8162;47.104;15.432;2023-02-28T03:51:57;8.10;;;5.20;;
16115;SDS011;8162;47.104;15.432;2023-02-28T03:55:00;6.07;;;4.77;;
16115;SDS011;8162;47.104;15.432;2023-02-28T03:58:54;7.20;;;5.77;;
16115;SDS011;8162;47.104;15.432;2023-02-28T04:01:33;7.73;;;5.53;;
16115;SDS011;8162;47.104;15.432;2023-02-28T04:04:43;7.67;;;5.23;;
16115;SDS011;8162;47.104;15.432;2023-02-28T04:07:48;8.43;;;5.70;;
16115;SDS011;8162;47.104;15.432;2023-02-28T04:10:55;6.20;;;4.97;;
16115;SDS011;8162;47.104;15.432;2023-02-28T04:14:01;6.83;;;5.63;;
16115;SDS011;8162;47.104;15.432;2023-02-28T04:17:02;5.70;;;5.10;;
16115;SDS011;8162;47.104;15.432;2023-02-28T04:20:03;5.17;;;4.70;;
16115;SDS011;8162;47.104;15.432;2023-02-28T04:23:09;6.80;;;4.77;;
16115;SDS011;8162;47.104;15.432;2023-02-28T04:26:09;10.47;;;5.67;;
16115;SDS011;8162;47.104;15.432;2023-02-28T04:29:11;10.33;;;5.93;;
16115;SDS011;8162;47.104;15.432;2023-02-28T04:32:13;8.13;;;5.97;;
16115;SDS011;8162;47.104;15.432;2023-02-28T04:35:13;7.03;;;5.70;;
16115;SDS011;8162;47.104;15.432;2023-02-28T04:38:14;8.20;;;6.17;;
16115;SDS011;8162;47.104;15.432;2023-02-28T04:41:15;5.80;;;5.17;;
16115;SDS011;8162;47.104;15.432;2023-02-28T04:44:16;9.00;;;6.33;;
16115;SDS011;8162;47.104;15.432;2023-02-28T04:47:17;9.30;;;6.47;;
16115;SDS011;8162;47.104;15.432;2023-02-28T04:50:18;8.00;;;6.63;;
16115;SDS011;8162;47.104;15.432;2023-02-28T04:53:19;7.23;;;5.87;;
16115;SDS011;8162;47.104;15.432;2023-02-28T04:56:20;8.10;;;5.73;;
16115;SDS011;8162;47.104;15.432;2023-02-28T04:59:22;7.37;;;5.30;;
16115;SDS011;8162;47.104;15.432;2023-02-28T05:02:22;6.97;;;5.60;;
16115;SDS011;8162;47.104;15.432;2023-02-28T05:05:23;7.23;;;6.33;;
16115;SDS011;8162;47.104;15.432;2023-02-28T05:08:24;8.90;;;7.07;;
16115;SDS011;8162;47.104;15.432;2023-02-28T05:11:29;8.00;;;6.17;;
16115;SDS011;8162;47.104;15.432;2023-02-28T05:14:34;9.73;;;6.63;;
16115;SDS011;8162;47.104;15.432;2023-02-28T05:17:36;8.07;;;6.37;;
16115;SDS011;8162;47.104;15.432;2023-02-28T05:20:37;8.97;;;6.90;;
16115;SDS011;8162;47.104;15.432;2023-02-28T05:23:37;10.73;;;6.77;;
16115;SDS011;8162;47.104;15.432;2023-02-28T05:26:42;6.97;;;5.87;;
16115;SDS011;8162;47.104;15.432;2023-02-28T05:29:43;9.50;;;6.30;;
16115;SDS011;8162;47.104;15.432;2023-02-28T05:32:43;8.30;;;6.17;;
16115;SDS011;8162;47.104;15.432;2023-02-28T05:35:49;7.87;;;6.37;;
16115;SDS011;8162;47.104;15.432;2023-02-28T05:38:50;7.27;;;6.20;;
16115;SDS011;8162;47.104;15.432;2023-02-28T05:41:51;10.33;;;6.57;;
16115;SDS011;8162;47.104;15.432;2023-02-28T05:44:52;10.07;;;7.07;;
16115;SDS011;8162;47.104;15.432;2023-02-28T05:47:53;7.57;;;6.20;;
16115;SDS011;8162;47.104;15.432;2023-02-28T05:50:54;8.23;;;6.47;;
16115;SDS011;8162;47.104;15.432;2023-02-28T05:54:00;8.03;;;5.93;;
16115;SDS011;8162;47.104;15.432;2023-02-28T05:57:01;8.00;;;6.30;;
16115;SDS011;8162;47.104;15.432;2023-02-28T06:00:02;9.50;;;6.87;;
16115;SDS011;8162;47.104;15.432;2023-02-28T06:03:03;9.27;;;6.30;;
16115;SDS011;8162;47.104;15.432;2023-02-28T06:06:04;7.83;;;6.30;;
16115;SDS011;8162;47.104;15.432;2023-02-28T06:09:05;9.30;;;6.80;;
16115;SDS011;8162;47.104;15.432;2023-02-28T06:12:06;8.60;;;6.33;;
16115;SDS011;8162;47.104;15.432;2023-02-28T06:15:11;8.57;;;7.43;;
16115;SDS011;8162;47.104;15.432;2023-02-28T06:18:13;8.67;;;6.60;;
16115;SDS011;8162;47.104;15.432;2023-02-28T06:21:14;9.43;;;6.87;;
16115;SDS011;8162;47.104;15.432;2023-02-28T06:24:15;9.57;;;7.27;;
16115;SDS011;8162;47.104;15.432;2023-02-28T06:27:16;8.67;;;7.50;;
16115;SDS011;8162;47.104;15.432;2023-02-28T06:30:17;9.37;;;6.90;;
16115;SDS011;8162;47.104;15.432;2023-02-28T06:33:25;10.03;;;7.83;;
16115;SDS011;8162;47.104;15.432;2023-02-28T06:36:26;9.73;;;8.07;;
16115;SDS011;8162;47.104;15.432;2023-02-28T06:39:31;10.87;;;7.77;;
16115;SDS011;8162;47.104;15.432;2023-02-28T06:42:32;9.53;;;7.63;;
16115;SDS011;8162;47.104;15.432;2023-02-28T06:45:33;9.70;;;7.87;;
16115;SDS011;8162;47.104;15.432;2023-02-28T06:48:33;9.57;;;7.47;;
16115;SDS011;8162;47.104;15.432;2023-02-28T06:51:36;11.63;;;8.37;;
16115;SDS011;8162;47.104;15.432;2023-02-28T06:54:38;10.17;;;7.67;;
16115;SDS011;8162;47.104;15.432;2023-02-28T06:57:39;9.40;;;7.40;;
16115;SDS011;8162;47.104;15.432;2023-02-28T07:00:43;11.10;;;8.60;;
16115;SDS011;8162;47.104;15.432;2023-02-28T07:03:45;8.60;;;7.37;;
16115;SDS011;8162;47.104;15.432;2023-02-28T07:06:46;11.67;;;8.00;;
16115;SDS011;8162;47.104;15.432;2023-02-28T07:09:47;10.20;;;8.03;;
16115;SDS011;8162;47.104;15.432;2023-02-28T07:12:48;9.77;;;7.63;;
16115;SDS011;8162;47.104;15.432;2023-02-28T07:15:56;8.73;;;7.30;;
16115;SDS011;8162;47.104;15.432;2023-02-28T07:18:57;10.73;;;8.20;;
16115;SDS011;8162;47.104;15.432;2023-02-28T07:21:58;11.33;;;8.07;;
16115;SDS011;8162;47.104;15.432;2023-02-28T07:24:59;10.07;;;7.70;;
16115;SDS011;8162;47.104;15.432;2023-02-28T07:28:00;10.97;;;8.40;;
16115;SDS011;8162;47.104;15.432;2023-02-28T07:31:05;11.77;;;8.40;;
16115;SDS011;8162;47.104;15.432;2023-02-28T07:34:06;12.73;;;8.67;;
16115;SDS011;8162;47.104;15.432;2023-02-28T07:37:07;10.53;;;8.80;;
16115;SDS011;8162;47.104;15.432;2023-02-28T07:40:09;10.80;;;8.27;;
16115;SDS011;8162;47.104;15.432;2023-02-28T07:43:13;10.93;;;8.50;;
16115;SDS011;8162;47.104;15.432;2023-02-28T07:46:15;8.80;;;7.80;;
16115;SDS011;8162;47.104;15.432;2023-02-28T07:49:17;12.90;;;8.83;;
16115;SDS011;8162;47.104;15.432;2023-02-28T07:52:18;9.83;;;7.90;;
16115;SDS011;8162;47.104;15.432;2023-02-28T07:55:19;11.57;;;8.53;;
16115;SDS011;8162;47.104;15.432;2023-02-28T07:58:20;14.87;;;8.83;;
16115;SDS011;8162;47.104;15.432;2023-02-28T08:01:21;10.13;;;7.77;;
16115;SDS011;8162;47.104;15.432;2023-02-28T08:04:22;10.97;;;8.87;;
16115;SDS011;8162;47.104;15.432;2023-02-28T08:07:23;11.30;;;8.20;;
16115;SDS011;8162;47.104;15.432;2023-02-28T08:10:24;9.97;;;8.50;;
16115;SDS011;8162;47.104;15.432;2023-02-28T08:13:25;10.07;;;7.93;;
16115;SDS011;8162;47.104;15.432;2023-02-28T08:16:27;11.03;;;8.67;;
16115;SDS011;8162;47.104;15.432;2023-02-28T08:19:28;14.60;;;8.73;;
16115;SDS011;8162;47.104;15.432;2023-02-28T08:22:29;12.53;;;9.07;;
16115;SDS011;8162;47.104;15.432;2023-02-28T08:25:30;12.83;;;9.53;;
16115;SDS011;8162;47.104;15.432;2023-02-28T08:28:31;12.50;;;9.43;;
16115;SDS011;8162;47.104;15.432;2023-02-28T08:31:32;11.97;;;8.33;;
16115;SDS011;8162;47.104;15.432;2023-02-28T08:34:35;10.57;;;8.30;;
16115;SDS011;8162;47.104;15.432;2023-02-28T08:37:36;12.27;;;9.67;;
16115;SDS011;8162;47.104;15.432;2023-02-28T08:40:37;11.53;;;9.40;;
16115;SDS011;8162;47.104;15.432;2023-02-28T08:43:39;10.90;;;9.10;;
16115;SDS011;8162;47.104;15.432;2023-02-28T08:46:40;10.20;;;8.80;;
16115;SDS011;8162;47.104;15.432;2023-02-28T08:49:41;11.73;;;9.23;;
16115;SDS011;8162;47.104;15.432;2023-02-28T08:52:42;13.23;;;9.90;;
16115;SDS011;8162;47.104;15.432;2023-02-28T08:55:44;12.40;;;9.80;;
16115;SDS011;8162;47.104;15.432;2023-02-28T08:58:46;16.97;;;9.20;;
16115;SDS011;8162;47.104;15.432;2023-02-28T09:01:47;10.97;;;8.50;;
16115;SDS011;8162;47.104;15.432;2023-02-28T09:04:48;11.73;;;8.70;;
16115;SDS011;8162;47.104;15.432;2023-02-28T09:07:49;14.23;;;9.17;;
16115;SDS011;8162;47.104;15.432;2023-02-28T09:10:50;14.57;;;9.27;;
16115;SDS011;8162;47.104;15.432;2023-02-28T09:13:52;12.97;;;9.03;;
16115;SDS011;8162;47.104;15.432;2023-02-28T09:16:53;13.07;;;10.60;;
16115;SDS011;8162;47.104;15.432;2023-02-28T09:19:54;10.70;;;8.60;;
16115;SDS011;8162;47.104;15.432;2023-02-28T09:22:55;13.57;;;10.10;;
16115;SDS011;8162;47.104;15.432;2023-02-28T09:25:56;10.80;;;9.30;;
16115;SDS011;8162;47.104;15.432;2023-02-28T09:28:58;12.30;;;9.93;;
16115;SDS011;8162;47.104;15.432;2023-02-28T09:31:59;14.03;;;9.77;;
16115;SDS011;8162;47.104;15.432;2023-02-28T09:35:01;11.77;;;9.60;;
16115;SDS011;8162;47.104;15.432;2023-02-28T09:38:02;13.23;;;9.40;;
16115;SDS011;8162;47.104;15.432;2023-02-28T09:41:08;16.03;;;10.37;;
16115;SDS011;8162;47.104;15.432;2023-02-28T09:44:12;14.27;;;9.50;;
16115;SDS011;8162;47.104;15.432;2023-02-28T09:50:29;10.97;;;9.33;;
16115;SDS011;8162;47.104;15.432;2023-02-28T09:53:33;14.37;;;9.23;;
16115;SDS011;8162;47.104;15.432;2023-02-28T09:56:42;12.10;;;9.90;;
16115;SDS011;8162;47.104;15.432;2023-02-28T10:06:26;13.13;;;9.77;;
16115;SDS011;8162;47.104;15.432;2023-02-28T10:09:30;11.30;;;10.00;;
16115;SDS011;8162;47.104;15.432;2023-02-28T10:12:32;11.90;;;10.13;;
16115;SDS011;8162;47.104;15.432;2023-02-28T10:15:34;14.67;;;10.33;;
16115;SDS011;8162;47.104;15.432;2023-02-28T10:22:03;13.57;;;10.40;;
16115;SDS011;8162;47.104;15.432;2023-02-28T10:25:15;11.03;;;9.57;;
16115;SDS011;8162;47.104;15.432;2023-02-28T10:28:20;15.17;;;10.43;;
16115;SDS011;8162;47.104;15.432;2023-02-28T10:31:20;12.10;;;9.80;;
16115;SDS011;8162;47.104;15.432;2023-02-28T10:34:21;16.23;;;11.33;;
16115;SDS011;8162;47.104;15.432;2023-02-28T10:37:22;12.83;;;10.33;;
16115;SDS011;8162;47.104;15.432;2023-02-28T10:43:23;14.40;;;10.70;;
16115;SDS011;8162;47.104;15.432;2023-02-28T10:46:24;14.93;;;10.57;;
16115;SDS011;8162;47.104;15.432;2023-02-28T10:49:33;14.70;;;10.87;;
16115;SDS011;8162;47.104;15.432;2023-02-28T10:52:38;15.70;;;11.17;;
16115;SDS011;8162;47.104;15.432;2023-02-28T10:55:40;15.53;;;11.33;;
16115;SDS011;8162;47.104;15.432;2023-02-28T10:58:57;14.57;;;10.90;;
16115;SDS011;8162;47.104;15.432;2023-02-28T11:02:01;15.53;;;11.23;;
16115;SDS011;8162;47.104;15.432;2023-02-28T11:05:02;14.40;;;11.10;;
16115;SDS011;8162;47.104;15.432;2023-02-28T11:08:21;12.90;;;11.10;;
16115;SDS011;8162;47.104;15.432;2023-02-28T11:11:24;12.73;;;10.23;;
16115;SDS011;8162;47.104;15.432;2023-02-28T11:14:27;12.43;;;10.73;;
16115;SDS011;8162;47.104;15.432;2023-02-28T11:17:30;16.13;;;10.53;;
16115;SDS011;8162;47.104;15.432;2023-02-28T11:20:32;12.27;;;10.30;;
16115;SDS011;8162;47.104;15.432;2023-02-28T11:23:34;14.90;;;11.07;;
16115;SDS011;8162;47.104;15.432;2023-02-28T11:26:42;12.60;;;10.00;;
16115;SDS011;8162;47.104;15.432;2023-02-28T11:29:46;12.43;;;10.93;;
16115;SDS011;8162;47.104;15.432;2023-02-28T11:32:48;16.13;;;11.47;;
16115;SDS011;8162;47.104;15.432;2023-02-28T11:35:50;13.93;;;11.30;;
16115;SDS011;8162;47.104;15.432;2023-02-28T11:38:53;17.20;;;12.23;;
16115;SDS011;8162;47.104;15.432;2023-02-28T11:42:00;16.53;;;11.37;;
16115;SDS011;8162;47.104;15.432;2023-02-28T11:45:43;15.80;;;12.00;;
16115;SDS011;8162;47.104;15.432;2023-02-28T11:48:49;16.53;;;12.37;;
16115;SDS011;8162;47.104;15.432;2023-02-28T11:55:26;16.43;;;11.40;;
16115;SDS011;8162;47.104;15.432;2023-02-28T12:08:27;13.87;;;11.73;;
16115;SDS011;8162;47.104;15.432;2023-02-28T12:11:52;16.03;;;11.97;;
16115;SDS011;8162;47.104;15.432;2023-02-28T12:18:23;15.97;;;11.97;;
16115;SDS011;8162;47.104;15.432;2023-02-28T12:28:08;15.27;;;12.03;;
16115;SDS011;8162;47.104;15.432;2023-02-28T12:31:20;16.37;;;12.13;;
16115;SDS011;8162;47.104;15.432;2023-02-28T12:34:43;14.27;;;11.80;;
16115;SDS011;8162;47.104;15.432;2023-02-28T12:37:54;16.13;;;12.80;;
16115;SDS011;8162;47.104;15.432;2023-02-28T12:41:00;13.77;;;11.20;;
16115;SDS011;8162;47.104;15.432;2023-02-28T12:47:40;15.73;;;11.47;;
16115;SDS011;8162;47.104;15.432;2023-02-28T12:50:44;16.93;;;12.23;;
16115;SDS011;8162;47.104;15.432;2023-02-28T12:53:54;16.93;;;13.40;;
16115;SDS011;8162;47.104;15.432;2023-02-28T13:00:29;15.70;;;12.57;;
16115;SDS011;8162;47.104;15.432;2023-02-28T13:03:51;15.93;;;12.77;;
16115;SDS011;8162;47.104;15.432;2023-02-28T13:10:10;16.93;;;12.53;;
16115;SDS011;8162;47.104;15.432;2023-02-28T13:13:15;15.50;;;12.23;;
16115;SDS011;8162;47.104;15.432;2023-02-28T13:16:18;17.43;;;11.97;;
16115;SDS011;8162;47.104;15.432;2023-02-28T13:19:19;16.30;;;12.03;;
16115;SDS011;8162;47.104;15.432;2023-02-28T13:22:36;14.13;;;12.43;;
16115;SDS011;8162;47.104;15.432;2023-02-28T13:32:31;17.77;;;12.53;;
16115;SDS011;8162;47.104;15.432;2023-02-28T13:35:37;17.33;;;12.67;;
16115;SDS011;8162;47.104;15.432;2023-02-28T13:38:45;16.43;;;12.77;;
16115;SDS011;8162;47.104;15.432;2023-02-28T13:41:52;14.93;;;12.80;;
16115;SDS011;8162;47.104;15.432;2023-02-28T13:45:35;14.83;;;12.23;;
16115;SDS011;8162;47.104;15.432;2023-02-28T13:48:22;17.30;;;12.70;;
16115;SDS011;8162;47.104;15.432;2023-02-28T13:51:28;17.50;;;13.53;;
16115;SDS011;8162;47.104;15.432;2023-02-28T14:01:53;19.03;;;13.63;;
16115;SDS011;8162;47.104;15.432;2023-02-28T14:05:01;16.13;;;12.97;;
16115;SDS011;8162;47.104;15.432;2023-02-28T14:08:13;15.17;;;12.13;;
16115;SDS011;8162;47.104;15.432;2023-02-28T14:11:25;14.17;;;10.83;;
16115;SDS011;8162;47.104;15.432;2023-02-28T14:17:35;13.40;;;11.60;;
16115;SDS011;8162;47.104;15.432;2023-02-28T14:20:37;17.00;;;12.20;;
16115;SDS011;8162;47.104;15.432;2023-02-28T14:36:35;12.23;;;10.80;;
16115;SDS011;8162;47.104;15.432;2023-02-28T14:39:40;15.17;;;12.97;;
16115;SDS011;8162;47.104;15.432;2023-02-28T14:42:46;14.53;;;12.90;;
16115;SDS011;8162;47.104;15.432;2023-02-28T14:45:57;14.67;;;12.33;;
16115;SDS011;8162;47.104;15.432;2023-02-28T14:48:58;15.97;;;13.57;;
16115;SDS011;8162;47.104;15.432;2023-02-28T14:55:12;13.40;;;11.40;;
16115;SDS011;8162;47.104;15.432;2023-02-28T14:58:33;15.10;;;12.70;;
16115;SDS011;8162;47.104;15.432;2023-02-28T15:01:34;13.33;;;12.03;;
16115;SDS011;8162;47.104;15.432;2023-02-28T15:04:35;13.67;;;11.73;;
16115;SDS011;8162;47.104;15.432;2023-02-28T15:07:37;14.57;;;12.93;;
16115;SDS011;8162;47.104;15.432;2023-02-28T15:10:42;15.53;;;13.93;;
16115;SDS011;8162;47.104;15.432;2023-02-28T15:13:46;15.97;;;13.77;;
16115;SDS011;8162;47.104;15.432;2023-02-28T15:17:09;14.53;;;11.80;;
16115;SDS011;8162;47.104;15.432;2023-02-28T15:20:12;14.33;;;11.70;;
16115;SDS011;8162;47.104;15.432;2023-02-28T15:23:15;14.30;;;11.00;;
16115;SDS011;8162;47.104;15.432;2023-02-28T15:26:16;15.10;;;12.50;;
16115;SDS011;8162;47.104;15.432;2023-02-28T15:29:22;14.97;;;12.00;;
16115;SDS011;8162;47.104;15.432;2023-02-28T15:32:32;15.83;;;12.00;;
16115;SDS011;8162;47.104;15.432;2023-02-28T15:35:34;14.80;;;12.70;;
16115;SDS011;8162;47.104;15.432;2023-02-28T15:38:35;15.30;;;13.43;;
16115;SDS011;8162;47.104;15.432;2023-02-28T15:41:37;16.67;;;13.57;;
16115;SDS011;8162;47.104;15.432;2023-02-28T15:44:38;16.97;;;12.97;;
16115;SDS011;8162;47.104;15.432;2023-02-28T15:47:38;17.00;;;12.20;;
16115;SDS011;8162;47.104;15.432;2023-02-28T15:50:39;14.13;;;12.00;;
16115;SDS011;8162;47.104;15.432;2023-02-28T15:56:51;15.37;;;11.93;;
16115;SDS011;8162;47.104;15.432;2023-02-28T15:59:54;13.10;;;11.37;;
16115;SDS011;8162;47.104;15.432;2023-02-28T16:02:56;14.90;;;12.53;;
16115;SDS011;8162;47.104;15.432;2023-02-28T16:06:20;17.83;;;12.33;;
16115;SDS011;8162;47.104;15.432;2023-02-28T16:09:23;15.33;;;12.10;;
16115;SDS011;8162;47.104;15.432;2023-02-28T16:12:25;17.17;;;13.27;;
16115;SDS011;8162;47.104;15.432;2023-02-28T16:15:28;14.83;;;12.37;;
16115;SDS011;8162;47.104;15.432;2023-02-28T16:18:30;16.47;;;12.70;;
16115;SDS011;8162;47.104;15.432;2023-02-28T16:21:31;18.00;;;13.20;;
16115;SDS011;8162;47.104;15.432;2023-02-28T16:24:32;17.43;;;12.33;;
16115;SDS011;8162;47.104;15.432;2023-02-28T16:27:35;16.20;;;13.20;;
16115;SDS011;8162;47.104;15.432;2023-02-28T16:30:37;17.13;;;13.57;;
16115;SDS011;8162;47.104;15.432;2023-02-28T16:33:38;19.30;;;13.20;;
16115;SDS011;8162;47.104;15.432;2023-02-28T16:36:38;16.23;;;12.03;;
16115;SDS011;8162;47.104;15.432;2023-02-28T16:39:40;23.07;;;13.80;;
16115;SDS011;8162;47.104;15.432;2023-02-28T16:42:48;17.93;;;12.97;;
16115;SDS011;8162;47.104;15.432;2023-02-28T16:45:54;22.27;;;13.17;;
16115;SDS011;8162;47.104;15.432;2023-02-28T16:48:56;16.23;;;12.93;;
16115;SDS011;8162;47.104;15.432;2023-02-28T16:51:57;17.80;;;12.63;;
16115;SDS011;8162;47.104;15.432;2023-02-28T16:54:58;15.53;;;11.60;;
16115;SDS011;8162;47.104;15.432;2023-02-28T16:58:00;15.97;;;11.47;;
16115;SDS011;8162;47.104;15.432;2023-02-28T17:01:02;16.13;;;11.77;;
16115;SDS011;8162;47.104;15.432;2023-02-28T17:04:03;16.37;;;11.07;;
16115;SDS011;8162;47.104;15.432;2023-02-28T17:07:04;15.33;;;11.63;;
16115;SDS011;8162;47.104;15.432;2023-02-28T17:13:22;17.87;;;12.30;;
16115;SDS011;8162;47.104;15.432;2023-02-28T17:16:25;18.73;;;13.27;;
16115;SDS011;8162;47.104;15.432;2023-02-28T17:19:28;17.50;;;12.43;;
16115;SDS011;8162;47.104;15.432;2023-02-28T17:22:29;15.87;;;12.03;;
16115;SDS011;8162;47.104;15.432;2023-02-28T17:25:30;16.17;;;12.57;;
16115;SDS011;8162;47.104;15.432;2023-02-28T17:28:32;17.43;;;12.73;;
16115;SDS011;8162;47.104;15.432;2023-02-28T17:31:33;17.27;;;12.30;;
16115;SDS011;8162;47.104;15.432;2023-02-28T17:34:38;19.60;;;12.93;;
16115;SDS011;8162;47.104;15.432;2023-02-28T17:37:41;20.73;;;13.67;;
16115;SDS011;8162;47.104;15.432;2023-02-28T17:40:42;16.73;;;13.03;;
16115;SDS011;8162;47.104;15.432;2023-02-28T17:43:44;19.30;;;12.83;;
16115;SDS011;8162;47.104;15.432;2023-02-28T17:46:45;16.43;;;12.93;;
16115;SDS011;8162;47.104;15.432;2023-02-28T17:49:46;18.43;;;13.80;;
16115;SDS011;8162;47.104;15.432;2023-02-28T17:52:47;15.20;;;12.53;;
16115;SDS011;8162;47.104;15.432;2023-02-28T17:55:50;17.97;;;12.53;;
16115;SDS011;8162;47.104;15.432;2023-02-28T17:58:52;15.43;;;12.40;;
16115;SDS011;8162;47.104;15.432;2023-02-28T18:01:54;19.00;;;13.43;;
16115;SDS011;8162;47.104;15.432;2023-02-28T18:04:55;20.13;;;13.57;;
16115;SDS011;8162;47.104;15.432;2023-02-28T18:07:57;17.10;;;12.53;;
16115;SDS011;8162;47.104;15.432;2023-02-28T18:10:58;17.50;;;12.70;;
16115;SDS011;8162;47.104;15.432;2023-02-28T18:14:00;16.57;;;11.80;;
16115;SDS011;8162;47.104;15.432;2023-02-28T18:17:01;20.37;;;13.93;;
16115;SDS011;8162;47.104;15.432;2023-02-28T18:20:02;15.60;;;12.00;;
16115;SDS011;8162;47.104;15.432;2023-02-28T18:23:05;23.50;;;14.40;;
16115;SDS011;8162;47.104;15.432;2023-02-28T18:26:06;18.63;;;13.40;;
16115;SDS011;8162;47.104;15.432;2023-02-28T18:29:09;18.80;;;11.90;;
16115;SDS011;8162;47.104;15.432;2023-02-28T18:32:17;18.37;;;13.10;;
16115;SDS011;8162;47.104;15.432;2023-02-28T18:35:18;16.80;;;11.50;;
16115;SDS011;8162;47.104;15.432;2023-02-28T18:38:33;17.00;;;11.57;;
16115;SDS011;8162;47.104;15.432;2023-02-28T18:41:34;16.40;;;12.20;;
16115;SDS011;8162;47.104;15.432;2023-02-28T18:44:36;14.53;;;11.27;;
16115;SDS011;8162;47.104;15.432;2023-02-28T18:47:37;17.60;;;12.23;;
16115;SDS011;8162;47.104;15.432;2023-02-28T18:50:38;17.80;;;12.03;;
16115;SDS011;8162;47.104;15.432;2023-02-28T18:53:41;17.43;;;11.53;;
16115;SDS011;8162;47.104;15.432;2023-02-28T18:56:43;16.47;;;12.00;;
16115;SDS011;8162;47.104;15.432;2023-02-28T18:59:44;17.13;;;12.20;;
16115;SDS011;8162;47.104;15.432;2023-02-28T19:02:45;18.27;;;12.53;;
16115;SDS011;8162;47.104;15.432;2023-02-28T19:05:46;17.73;;;12.33;;
16115;SDS011;8162;47.104;15.432;2023-02-28T19:08:51;15.50;;;11.13;;
16115;SDS011;8162;47.104;15.432;2023-02-28T19:11:56;15.07;;;10.87;;
16115;SDS011;8162;47.104;15.432;2023-02-28T19:14:58;16.13;;;12.33;;
16115;SDS011;8162;47.104;15.432;2023-02-28T19:17:59;16.23;;;12.13;;
16115;SDS011;8162;47.104;15.432;2023-02-28T19:21:00;18.80;;;12.10;;
16115;SDS011;8162;47.104;15.432;2023-02-28T19:24:02;15.73;;;11.83;;
16115;SDS011;8162;47.104;15.432;2023-02-28T19:27:03;19.40;;;13.13;;
16115;SDS011;8162;47.104;15.432;2023-02-28T19:30:04;17.80;;;12.90;;
16115;SDS011;8162;47.104;15.432;2023-02-28T19:33:06;17.90;;;13.10;;
16115;SDS011;8162;47.104;15.432;2023-02-28T19:36:09;16.47;;;13.67;;
16115;SDS011;8162;47.104;15.432;2023-02-28T19:39:12;18.60;;;14.40;;
16115;SDS011;8162;47.104;15.432;2023-02-28T19:42:14;18.43;;;12.77;;
16115;SDS011;8162;47.104;15.432;2023-02-28T19:45:17;17.20;;;13.10;;
16115;SDS011;8162;47.104;15.432;2023-02-28T19:48:18;17.67;;;13.43;;
16115;SDS011;8162;47.104;15.432;2023-02-28T19:51:24;19.83;;;13.80;;
16115;SDS011;8162;47.104;15.432;2023-02-28T19:54:26;17.27;;;12.97;;
16115;SDS011;8162;47.104;15.432;2023-02-28T19:57:29;16.47;;;13.07;;
16115;SDS011;8162;47.104;15.432;2023-02-28T20:00:30;18.43;;;13.67;;
16115;SDS011;8162;47.104;15.432;2023-02-28T20:03:31;16.30;;;12.80;;